sensor_id;sensor_type;location;lat;lon;timestamp;pressure;altitude;pressure_sealevel;temperature;humidity
48848;BME280;36611;51.638;5.784;2022-12-29T00:01:06;99980.59;;;14.55;64.05
48848;BME280;36611;51.638;5.784;2022-12-29T00:03:32;99982.28;;;14.56;64.13
48848;BME280;36611;51.638;5.784;2022-12-29T00:05:59;99973.31;;;14.56;64.17
48848;BME280;36611;51.638;5.784;2022-12-29T00:08:27;99959.81;;;14.56;63.77
48848;BME280;36611;51.638;5.784;2022-12-29T00:11:15;99958.97;;;14.55;63.72
48848;BME280;36611;51.638;5.784;2022-12-29T00:13:42;99967.06;;;14.55;64.12
48848;BME280;36611;51.638;5.784;2022-12-29T00:16:27;99951.88;;;14.54;63.89
48848;BME280;36611;51.638;5.784;2022-12-29T00:18:54;99958.44;;;14.52;64.22
48848;BME280;36611;51.638;5.784;2022-12-29T00:21:22;99947.94;;;14.49;63.75
48848;BME280;36611;51.638;5.784;2022-12-29T00:24:21;99960.75;;;14.47;64.17
48848;BME280;36611;51.638;5.784;2022-12-29T00:27:12;99951.09;;;14.44;64.00
48848;BME280;36611;51.638;5.784;2022-12-29T00:29:58;99954.50;;;14.46;63.50
48848;BME280;36611;51.638;5.784;2022-12-29T00:32:43;99955.66;;;14.44;63.83
48848;BME280;36611;51.638;5.784;2022-12-29T00:35:32;99945.84;;;14.43;63.74
48848;BME280;36611;51.638;5.784;2022-12-29T00:38:03;99938.03;;;14.40;63.77
48848;BME280;36611;51.638;5.784;2022-12-29T00:40:50;99919.44;;;14.37;63.95
48848;BME280;36611;51.638;5.784;2022-12-29T00:43:35;99931.25;;;14.36;63.54
48848;BME280;36611;51.638;5.784;2022-12-29T00:46:20;99930.72;;;14.32;63.99
48848;BME280;36611;51.638;5.784;2022-12-29T00:48:47;99925.63;;;14.29;63.81
48848;BME280;36611;51.638;5.784;2022-12-29T00:51:33;99923.06;;;14.27;63.60
48848;BME280;36611;51.638;5.784;2022-12-29T00:53:59;99921.53;;;14.25;63.97
48848;BME280;36611;51.638;5.784;2022-12-29T00:56:26;99921.53;;;14.25;64.13
48848;BME280;36611;51.638;5.784;2022-12-29T00:58:52;99912.75;;;14.23;64.22
48848;BME280;36611;51.638;5.784;2022-12-29T01:01:19;99915.28;;;14.24;64.30
48848;BME280;36611;51.638;5.784;2022-12-29T01:03:45;99912.75;;;14.23;64.17
48848;BME280;36611;51.638;5.784;2022-12-29T01:06:12;99909.03;;;14.24;64.36
48848;BME280;36611;51.638;5.784;2022-12-29T01:08:39;99908.03;;;14.25;64.54
48848;BME280;36611;51.638;5.784;2022-12-29T01:11:09;99901.47;;;14.27;64.59
48848;BME280;36611;51.638;5.784;2022-12-29T01:13:36;99889.66;;;14.28;64.54
48848;BME280;36611;51.638;5.784;2022-12-29T01:16:07;99912.13;;;14.29;64.85
48848;BME280;36611;51.638;5.784;2022-12-29T01:18:34;99904.69;;;14.31;64.64
48848;BME280;36611;51.638;5.784;2022-12-29T01:21:02;99899.16;;;14.32;64.71
48848;BME280;36611;51.638;5.784;2022-12-29T01:23:30;99895.44;;;14.34;64.95
48848;BME280;36611;51.638;5.784;2022-12-29T01:26:08;99882.78;;;14.34;65.41
48848;BME280;36611;51.638;5.784;2022-12-29T01:28:35;99885.16;;;14.37;65.21
48848;BME280;36611;51.638;5.784;2022-12-29T01:31:02;99892.44;;;14.37;65.21
48848;BME280;36611;51.638;5.784;2022-12-29T01:33:28;99894.13;;;14.38;64.93
48848;BME280;36611;51.638;5.784;2022-12-29T01:35:55;99888.56;;;14.39;64.77
48848;BME280;36611;51.638;5.784;2022-12-29T01:38:25;99894.97;;;14.38;65.24
48848;BME280;36611;51.638;5.784;2022-12-29T01:40:52;99880.63;;;14.38;64.77
48848;BME280;36611;51.638;5.784;2022-12-29T01:43:19;99879.63;;;14.39;64.87
48848;BME280;36611;51.638;5.784;2022-12-29T01:45:50;99869.81;;;14.38;65.37
48848;BME280;36611;51.638;5.784;2022-12-29T01:48:18;99866.94;;;14.39;65.15
48848;BME280;36611;51.638;5.784;2022-12-29T01:50:50;99881.31;;;14.40;64.83
48848;BME280;36611;51.638;5.784;2022-12-29T01:53:21;99865.09;;;14.40;65.07
48848;BME280;36611;51.638;5.784;2022-12-29T01:55:53;99862.56;;;14.38;65.15
48848;BME280;36611;51.638;5.784;2022-12-29T01:58:22;99870.50;;;14.40;64.94
48848;BME280;36611;51.638;5.784;2022-12-29T02:00:50;99865.09;;;14.40;64.79
48848;BME280;36611;51.638;5.784;2022-12-29T02:03:19;99860.69;;;14.39;64.66
48848;BME280;36611;51.638;5.784;2022-12-29T02:05:55;99869.66;;;14.39;64.64
48848;BME280;36611;51.638;5.784;2022-12-29T02:08:26;99879.47;;;14.40;64.58
48848;BME280;36611;51.638;5.784;2022-12-29T02:10:55;99875.75;;;14.41;64.68
48848;BME280;36611;51.638;5.784;2022-12-29T02:13:24;99869.38;;;14.42;64.82
48848;BME280;36611;51.638;5.784;2022-12-29T02:34:56;99867.72;;;14.49;64.07
48848;BME280;36611;51.638;5.784;2022-12-29T02:40:40;99867.41;;;14.52;63.95
48848;BME280;36611;51.638;5.784;2022-12-29T02:43:39;99856.63;;;14.52;64.12
48848;BME280;36611;51.638;5.784;2022-12-29T02:46:36;99858.31;;;14.53;64.01
48848;BME280;36611;51.638;5.784;2022-12-29T02:52:18;99863.72;;;14.53;64.02
48848;BME280;36611;51.638;5.784;2022-12-29T02:54:48;99860.84;;;14.55;63.43
48848;BME280;36611;51.638;5.784;2022-12-29T02:57:29;99845.47;;;14.55;63.88
48848;BME280;36611;51.638;5.784;2022-12-29T03:13:47;99831.28;;;14.53;63.53
48848;BME280;36611;51.638;5.784;2022-12-29T03:17:07;99845.81;;;14.52;63.58
48848;BME280;36611;51.638;5.784;2022-12-29T03:19:35;99836.00;;;14.51;63.53
48848;BME280;36611;51.638;5.784;2022-12-29T03:22:07;99836.00;;;14.51;63.26
48848;BME280;36611;51.638;5.784;2022-12-29T03:25:28;99851.06;;;14.54;63.63
48848;BME280;36611;51.638;5.784;2022-12-29T03:28:09;99844.81;;;14.53;63.60
48848;BME280;36611;51.638;5.784;2022-12-29T03:30:43;99843.94;;;14.53;63.47
48848;BME280;36611;51.638;5.784;2022-12-29T03:33:16;99838.53;;;14.53;63.60
48848;BME280;36611;51.638;5.784;2022-12-29T03:35:45;99834.16;;;14.52;63.58
48848;BME280;36611;51.638;5.784;2022-12-29T03:38:19;99847.50;;;14.53;63.22
48848;BME280;36611;51.638;5.784;2022-12-29T03:40:51;99842.09;;;14.53;63.43
48848;BME280;36611;51.638;5.784;2022-12-29T03:43:19;99831.28;;;14.53;63.02
48848;BME280;36611;51.638;5.784;2022-12-29T03:45:47;99823.34;;;14.52;62.98
48848;BME280;36611;51.638;5.784;2022-12-29T03:48:14;99824.03;;;14.54;63.34
48848;BME280;36611;51.638;5.784;2022-12-29T03:50:43;99824.19;;;14.52;63.40
48848;BME280;36611;51.638;5.784;2022-12-29T03:53:10;99833.31;;;14.51;63.11
48848;BME280;36611;51.638;5.784;2022-12-29T03:55:38;99826.19;;;14.50;63.39
48848;BME280;36611;51.638;5.784;2022-12-29T03:58:05;99847.97;;;14.49;63.30
48848;BME280;36611;51.638;5.784;2022-12-29T04:00:47;99834.47;;;14.49;63.24
48848;BME280;36611;51.638;5.784;2022-12-29T04:03:13;99830.91;;;14.48;63.10
48848;BME280;36611;51.638;5.784;2022-12-29T04:05:40;99823.97;;;14.46;63.31
48848;BME280;36611;51.638;5.784;2022-12-29T04:08:07;99828.38;;;14.47;62.92
48848;BME280;36611;51.638;5.784;2022-12-29T04:10:34;99833.94;;;14.45;63.06
48848;BME280;36611;51.638;5.784;2022-12-29T04:13:03;99828.53;;;14.45;63.03
48848;BME280;36611;51.638;5.784;2022-12-29T04:15:30;99844.75;;;14.45;63.19
48848;BME280;36611;51.638;5.784;2022-12-29T04:17:58;99849.31;;;14.45;62.72
48848;BME280;36611;51.638;5.784;2022-12-29T04:20:25;99857.41;;;14.45;63.01
48848;BME280;36611;51.638;5.784;2022-12-29T04:23:11;99853.84;;;14.44;62.78
48848;BME280;36611;51.638;5.784;2022-12-29T04:25:38;99861.28;;;14.42;62.94
48848;BME280;36611;51.638;5.784;2022-12-29T04:28:07;99839.94;;;14.39;62.79
48848;BME280;36611;51.638;5.784;2022-12-29T04:30:40;99841.09;;;14.37;62.70
48848;BME280;36611;51.638;5.784;2022-12-29T04:33:14;99842.28;;;14.34;63.13
48848;BME280;36611;51.638;5.784;2022-12-29T04:35:43;99850.69;;;14.31;62.80
48848;BME280;36611;51.638;5.784;2022-12-29T04:38:10;99846.44;;;14.28;63.12
48848;BME280;36611;51.638;5.784;2022-12-29T04:40:41;99848.63;;;14.25;63.05
48848;BME280;36611;51.638;5.784;2022-12-29T04:43:10;99862.75;;;14.19;63.02
48848;BME280;36611;51.638;5.784;2022-12-29T04:45:58;99863.75;;;14.18;62.82
48848;BME280;36611;51.638;5.784;2022-12-29T04:48:35;99866.06;;;14.13;62.92
48848;BME280;36611;51.638;5.784;2022-12-29T04:51:20;99852.84;;;14.10;62.67
48848;BME280;36611;51.638;5.784;2022-12-29T04:53:46;99855.84;;;14.07;62.63
48848;BME280;36611;51.638;5.784;2022-12-29T04:56:13;99865.28;;;14.03;62.62
48848;BME280;36611;51.638;5.784;2022-12-29T04:58:39;99867.28;;;14.00;62.50
48848;BME280;36611;51.638;5.784;2022-12-29T05:01:06;99857.47;;;13.99;62.93
48848;BME280;36611;51.638;5.784;2022-12-29T05:03:33;99855.09;;;13.96;62.54
48848;BME280;36611;51.638;5.784;2022-12-29T05:06:00;99867.19;;;13.92;62.55
48848;BME280;36611;51.638;5.784;2022-12-29T05:08:26;99874.91;;;13.87;62.23
48848;BME280;36611;51.638;5.784;2022-12-29T05:10:57;99876.06;;;13.85;62.35
48848;BME280;36611;51.638;5.784;2022-12-29T05:13:24;99886.16;;;13.83;62.41
48848;BME280;36611;51.638;5.784;2022-12-29T05:15:52;99879.22;;;13.80;62.24
48848;BME280;36611;51.638;5.784;2022-12-29T05:18:21;99889.31;;;13.78;62.23
48848;BME280;36611;51.638;5.784;2022-12-29T05:20:48;99894.03;;;13.76;62.05
48848;BME280;36611;51.638;5.784;2022-12-29T05:23:16;99896.88;;;13.75;61.99
48848;BME280;36611;51.638;5.784;2022-12-29T05:25:48;99901.59;;;13.73;61.93
48848;BME280;36611;51.638;5.784;2022-12-29T05:28:18;99894.78;;;13.68;61.83
48848;BME280;36611;51.638;5.784;2022-12-29T05:30:54;99910.44;;;13.65;62.38
48848;BME280;36611;51.638;5.784;2022-12-29T05:33:21;99906.50;;;13.59;61.76
48848;BME280;36611;51.638;5.784;2022-12-29T05:35:49;99920.13;;;13.58;61.93
48848;BME280;36611;51.638;5.784;2022-12-29T05:38:17;99910.50;;;13.55;62.21
48848;BME280;36611;51.638;5.784;2022-12-29T05:40:44;99935.91;;;13.53;61.91
48848;BME280;36611;51.638;5.784;2022-12-29T05:43:40;99934.06;;;13.53;61.92
48848;BME280;36611;51.638;5.784;2022-12-29T05:46:27;99943.00;;;13.54;62.12
48848;BME280;36611;51.638;5.784;2022-12-29T05:49:06;99941.63;;;13.50;61.77
48848;BME280;36611;51.638;5.784;2022-12-29T05:52:11;99934.38;;;13.50;62.20
48848;BME280;36611;51.638;5.784;2022-12-29T05:54:37;99939.63;;;13.52;62.27
48848;BME280;36611;51.638;5.784;2022-12-29T05:57:10;99937.78;;;13.52;61.84
48848;BME280;36611;51.638;5.784;2022-12-29T05:59:38;99936.06;;;13.51;62.14
48848;BME280;36611;51.638;5.784;2022-12-29T06:02:05;99949.41;;;13.53;62.01
48848;BME280;36611;51.638;5.784;2022-12-29T06:04:32;99935.78;;;13.54;62.23
48848;BME280;36611;51.638;5.784;2022-12-29T06:06:59;99951.09;;;13.54;61.91
48848;BME280;36611;51.638;5.784;2022-12-29T06:09:40;99957.19;;;13.56;61.67
48848;BME280;36611;51.638;5.784;2022-12-29T06:12:08;99955.19;;;13.58;61.54
48848;BME280;36611;51.638;5.784;2022-12-29T06:14:35;99943.25;;;13.60;61.77
48848;BME280;36611;51.638;5.784;2022-12-29T06:17:03;99946.66;;;13.62;61.42
48848;BME280;36611;51.638;5.784;2022-12-29T06:19:32;99944.50;;;13.66;61.25
48848;BME280;36611;51.638;5.784;2022-12-29T06:21:58;99945.22;;;13.68;61.18
48848;BME280;36611;51.638;5.784;2022-12-29T06:24:27;99948.75;;;13.68;61.20
48848;BME280;36611;51.638;5.784;2022-12-29T06:26:53;99962.09;;;13.70;61.13
48848;BME280;36611;51.638;5.784;2022-12-29T06:29:20;99950.16;;;13.73;61.19
48848;BME280;36611;51.638;5.784;2022-12-29T06:31:47;99958.09;;;13.74;61.32
48848;BME280;36611;51.638;5.784;2022-12-29T06:34:15;99946.31;;;13.75;60.69
48848;BME280;36611;51.638;5.784;2022-12-29T06:36:41;99944.44;;;13.76;60.86
48848;BME280;36611;51.638;5.784;2022-12-29T06:39:10;99933.81;;;13.74;60.60
48848;BME280;36611;51.638;5.784;2022-12-29T06:41:36;99940.22;;;13.73;60.66
48848;BME280;36611;51.638;5.784;2022-12-29T06:44:33;99938.19;;;13.75;60.62
48848;BME280;36611;51.638;5.784;2022-12-29T06:47:01;99936.50;;;13.74;60.60
48848;BME280;36611;51.638;5.784;2022-12-29T06:49:28;99924.88;;;13.74;60.74
48848;BME280;36611;51.638;5.784;2022-12-29T06:51:54;99932.97;;;13.74;60.59
48848;BME280;36611;51.638;5.784;2022-12-29T06:54:21;99930.56;;;13.71;60.34
48848;BME280;36611;51.638;5.784;2022-12-29T06:56:48;99932.72;;;13.67;59.94
48848;BME280;36611;51.638;5.784;2022-12-29T06:59:14;99937.09;;;13.68;60.27
48848;BME280;36611;51.638;5.784;2022-12-29T07:01:41;99932.88;;;13.65;59.85
48848;BME280;36611;51.638;5.784;2022-12-29T07:04:07;99930.31;;;13.64;59.80
48848;BME280;36611;51.638;5.784;2022-12-29T07:06:34;99932.16;;;13.63;59.50
48848;BME280;36611;51.638;5.784;2022-12-29T07:09:00;99934.16;;;13.61;59.89
48848;BME280;36611;51.638;5.784;2022-12-29T07:11:27;99948.66;;;13.60;59.20
48848;BME280;36611;51.638;5.784;2022-12-29T07:13:54;99956.91;;;13.59;59.13
48848;BME280;36611;51.638;5.784;2022-12-29T07:16:20;99949.81;;;13.58;59.36
48848;BME280;36611;51.638;5.784;2022-12-29T07:18:47;99957.06;;;13.57;59.08
48848;BME280;36611;51.638;5.784;2022-12-29T07:21:14;99968.69;;;13.58;59.49
48848;BME280;36611;51.638;5.784;2022-12-29T07:23:40;99979.34;;;13.59;59.55
48848;BME280;36611;51.638;5.784;2022-12-29T07:26:08;99978.34;;;13.60;59.18
48848;BME280;36611;51.638;5.784;2022-12-29T07:28:36;99983.44;;;13.63;59.34
48848;BME280;36611;51.638;5.784;2022-12-29T07:31:05;99987.69;;;13.66;59.32
48848;BME280;36611;51.638;5.784;2022-12-29T07:33:32;99996.47;;;13.68;59.16
48848;BME280;36611;51.638;5.784;2022-12-29T07:35:59;99991.63;;;13.72;59.17
48848;BME280;36611;51.638;5.784;2022-12-29T07:38:26;99989.78;;;13.72;59.25
48848;BME280;36611;51.638;5.784;2022-12-29T07:40:56;99998.72;;;13.73;58.82
48848;BME280;36611;51.638;5.784;2022-12-29T07:43:23;100004.81;;;13.75;59.13
48848;BME280;36611;51.638;5.784;2022-12-29T07:46:15;100001.97;;;13.76;58.98
48848;BME280;36611;51.638;5.784;2022-12-29T07:49:02;100014.47;;;13.77;58.88
48848;BME280;36611;51.638;5.784;2022-12-29T07:51:28;100018.16;;;13.76;58.88
48848;BME280;36611;51.638;5.784;2022-12-29T07:53:55;100016.31;;;13.77;58.19
48848;BME280;36611;51.638;5.784;2022-12-29T07:56:22;100019.31;;;13.74;58.35
48848;BME280;36611;51.638;5.784;2022-12-29T07:58:48;100015.91;;;13.72;58.13
48848;BME280;36611;51.638;5.784;2022-12-29T08:01:15;100007.97;;;13.70;58.28
48848;BME280;36611;51.638;5.784;2022-12-29T08:03:43;100003.56;;;13.69;58.06
48848;BME280;36611;51.638;5.784;2022-12-29T08:06:10;100009.13;;;13.67;58.21
48848;BME280;36611;51.638;5.784;2022-12-29T08:08:37;100008.25;;;13.67;57.84
48848;BME280;36611;51.638;5.784;2022-12-29T08:11:06;100027.16;;;13.67;57.87
48848;BME280;36611;51.638;5.784;2022-12-29T08:13:33;100022.59;;;13.67;58.20
48848;BME280;36611;51.638;5.784;2022-12-29T08:16:00;100022.47;;;13.69;58.16
48848;BME280;36611;51.638;5.784;2022-12-29T08:18:27;100025.00;;;13.71;58.05
48848;BME280;36611;51.638;5.784;2022-12-29T08:20:53;100031.94;;;13.73;58.01
48848;BME280;36611;51.638;5.784;2022-12-29T08:23:21;100028.09;;;13.76;57.86
48848;BME280;36611;51.638;5.784;2022-12-29T08:25:59;100038.75;;;13.77;57.83
48848;BME280;36611;51.638;5.784;2022-12-29T08:28:27;100041.84;;;13.82;57.94
48848;BME280;36611;51.638;5.784;2022-12-29T08:31:09;100030.22;;;13.82;57.91
48848;BME280;36611;51.638;5.784;2022-12-29T08:33:36;100040.84;;;13.83;58.11
48848;BME280;36611;51.638;5.784;2022-12-29T08:36:05;100032.75;;;13.83;57.92
48848;BME280;36611;51.638;5.784;2022-12-29T08:38:32;100039.84;;;13.84;57.52
48848;BME280;36611;51.638;5.784;2022-12-29T08:40:59;100044.94;;;13.87;57.62
48848;BME280;36611;51.638;5.784;2022-12-29T08:43:30;100038.69;;;13.87;57.54
48848;BME280;36611;51.638;5.784;2022-12-29T08:45:58;100044.81;;;13.89;57.34
48848;BME280;36611;51.638;5.784;2022-12-29T08:48:25;100038.41;;;13.90;57.44
48848;BME280;36611;51.638;5.784;2022-12-29T08:50:52;100033.84;;;13.90;57.30
48848;BME280;36611;51.638;5.784;2022-12-29T08:53:19;100043.50;;;13.93;57.04
48848;BME280;36611;51.638;5.784;2022-12-29T08:55:46;100046.06;;;13.94;57.21
48848;BME280;36611;51.638;5.784;2022-12-29T08:58:14;100046.28;;;14.01;57.44
48848;BME280;36611;51.638;5.784;2022-12-29T09:00:43;100039.44;;;14.07;57.08
48848;BME280;36611;51.638;5.784;2022-12-29T09:03:10;100046.25;;;14.11;57.05
48848;BME280;36611;51.638;5.784;2022-12-29T09:05:37;100043.28;;;14.14;56.97
48848;BME280;36611;51.638;5.784;2022-12-29T09:08:04;100040.56;;;14.14;57.01
48848;BME280;36611;51.638;5.784;2022-12-29T09:10:31;100040.41;;;14.15;56.64
48848;BME280;36611;51.638;5.784;2022-12-29T09:12:58;100042.28;;;14.15;56.71
48848;BME280;36611;51.638;5.784;2022-12-29T09:15:25;100055.63;;;14.16;56.79
48848;BME280;36611;51.638;5.784;2022-12-29T09:17:51;100047.53;;;14.16;56.72
48848;BME280;36611;51.638;5.784;2022-12-29T09:20:19;100040.28;;;14.17;56.40
48848;BME280;36611;51.638;5.784;2022-12-29T09:22:46;100045.53;;;14.18;56.63
48848;BME280;36611;51.638;5.784;2022-12-29T09:25:14;100047.53;;;14.16;56.30
48848;BME280;36611;51.638;5.784;2022-12-29T09:27:41;100048.38;;;14.17;56.52
48848;BME280;36611;51.638;5.784;2022-12-29T09:30:11;100050.06;;;14.18;56.39
48848;BME280;36611;51.638;5.784;2022-12-29T09:32:38;100056.16;;;14.20;56.01
48848;BME280;36611;51.638;5.784;2022-12-29T09:35:11;100057.03;;;14.20;56.28
48848;BME280;36611;51.638;5.784;2022-12-29T09:37:38;100059.56;;;14.22;56.45
48848;BME280;36611;51.638;5.784;2022-12-29T09:40:05;100060.56;;;14.21;55.89
48848;BME280;36611;51.638;5.784;2022-12-29T09:42:38;100062.97;;;14.24;56.04
48848;BME280;36611;51.638;5.784;2022-12-29T09:45:17;100079.16;;;14.24;56.38
48848;BME280;36611;51.638;5.784;2022-12-29T09:47:46;100083.56;;;14.25;56.19
48848;BME280;36611;51.638;5.784;2022-12-29T09:52:52;100089.28;;;14.22;56.32
48848;BME280;36611;51.638;5.784;2022-12-29T09:55:24;100087.56;;;14.21;56.25
48848;BME280;36611;51.638;5.784;2022-12-29T10:00:48;100098.22;;;14.22;56.23
48848;BME280;36611;51.638;5.784;2022-12-29T10:03:22;100099.22;;;14.21;56.44
48848;BME280;36611;51.638;5.784;2022-12-29T10:05:58;100109.19;;;14.21;56.25
48848;BME280;36611;51.638;5.784;2022-12-29T10:14:17;100118.44;;;14.18;56.52
48848;BME280;36611;51.638;5.784;2022-12-29T10:17:09;100124.13;;;14.15;56.48
48848;BME280;36611;51.638;5.784;2022-12-29T10:20:02;100130.53;;;14.14;56.45
48848;BME280;36611;51.638;5.784;2022-12-29T10:25:17;100139.19;;;14.08;56.88
48848;BME280;36611;51.638;5.784;2022-12-29T10:27:47;100139.19;;;14.08;56.89
48848;BME280;36611;51.638;5.784;2022-12-29T10:30:15;100143.75;;;14.08;56.96
48848;BME280;36611;51.638;5.784;2022-12-29T10:33:04;100151.44;;;14.03;57.25
48848;BME280;36611;51.638;5.784;2022-12-29T10:35:37;100165.22;;;13.99;57.24
48848;BME280;36611;51.638;5.784;2022-12-29T10:38:27;100166.53;;;13.95;57.27
48848;BME280;36611;51.638;5.784;2022-12-29T10:41:11;100169.38;;;13.94;57.62
48848;BME280;36611;51.638;5.784;2022-12-29T10:43:51;100168.66;;;13.92;57.73
48848;BME280;36611;51.638;5.784;2022-12-29T10:46:33;100180.47;;;13.91;57.73
48848;BME280;36611;51.638;5.784;2022-12-29T10:49:02;100192.13;;;13.91;57.65
48848;BME280;36611;51.638;5.784;2022-12-29T10:51:32;100185.00;;;13.90;57.95
48848;BME280;36611;51.638;5.784;2022-12-29T10:56:42;100201.91;;;13.92;58.06
48848;BME280;36611;51.638;5.784;2022-12-29T10:59:25;100197.50;;;13.91;58.29
48848;BME280;36611;51.638;5.784;2022-12-29T11:07:22;100206.19;;;13.85;58.22
48848;BME280;36611;51.638;5.784;2022-12-29T11:09:53;100217.13;;;13.84;58.31
48848;BME280;36611;51.638;5.784;2022-12-29T11:12:29;100218.97;;;13.83;58.42
48848;BME280;36611;51.638;5.784;2022-12-29T11:17:44;100219.97;;;13.82;58.86
48848;BME280;36611;51.638;5.784;2022-12-29T11:22:52;100237.72;;;13.85;58.77
48848;BME280;36611;51.638;5.784;2022-12-29T11:25:19;100236.72;;;13.86;59.13
48848;BME280;36611;51.638;5.784;2022-12-29T11:28:21;100243.13;;;13.85;58.77
48848;BME280;36611;51.638;5.784;2022-12-29T11:30:59;100244.84;;;13.86;58.96
48848;BME280;36611;51.638;5.784;2022-12-29T11:33:28;100245.84;;;13.85;59.08
48848;BME280;36611;51.638;5.784;2022-12-29T11:36:05;100255.78;;;13.84;59.37
48848;BME280;36611;51.638;5.784;2022-12-29T11:38:36;100248.66;;;13.83;58.87
48848;BME280;36611;51.638;5.784;2022-12-29T11:41:05;100260.19;;;13.85;59.51
48848;BME280;36611;51.638;5.784;2022-12-29T11:43:37;100253.78;;;13.86;59.36
48848;BME280;36611;51.638;5.784;2022-12-29T11:46:05;100253.63;;;13.88;59.30
48848;BME280;36611;51.638;5.784;2022-12-29T11:48:38;100265.13;;;13.90;59.15
48848;BME280;36611;51.638;5.784;2022-12-29T11:51:06;100258.75;;;13.91;59.11
48848;BME280;36611;51.638;5.784;2022-12-29T11:53:45;100267.97;;;13.88;59.32
48848;BME280;36611;51.638;5.784;2022-12-29T11:56:15;100257.34;;;13.87;59.24
48848;BME280;36611;51.638;5.784;2022-12-29T11:58:43;100268.97;;;13.87;59.12
48848;BME280;36611;51.638;5.784;2022-12-29T12:03:45;100268.97;;;13.87;58.93
48848;BME280;36611;51.638;5.784;2022-12-29T12:06:16;100263.44;;;13.89;58.95
48848;BME280;36611;51.638;5.784;2022-12-29T12:08:53;100270.53;;;13.90;59.02
48848;BME280;36611;51.638;5.784;2022-12-29T12:11:28;100261.44;;;13.91;58.93
48848;BME280;36611;51.638;5.784;2022-12-29T12:14:09;100272.94;;;13.93;59.00
48848;BME280;36611;51.638;5.784;2022-12-29T12:17:02;100279.06;;;13.95;59.03
48848;BME280;36611;51.638;5.784;2022-12-29T12:19:55;100272.81;;;13.94;58.98
48848;BME280;36611;51.638;5.784;2022-12-29T12:24:58;100286.56;;;14.01;59.05
48848;BME280;36611;51.638;5.784;2022-12-29T12:27:33;100284.44;;;14.05;58.78
48848;BME280;36611;51.638;5.784;2022-12-29T12:30:21;100285.84;;;14.09;59.17
48848;BME280;36611;51.638;5.784;2022-12-29T12:33:22;100284.72;;;14.11;59.15
48848;BME280;36611;51.638;5.784;2022-12-29T12:36:13;100292.41;;;14.16;58.69
48848;BME280;36611;51.638;5.784;2022-12-29T12:47:46;100297.09;;;14.14;58.29
48848;BME280;36611;51.638;5.784;2022-12-29T12:50:22;100285.31;;;14.15;58.44
48848;BME280;36611;51.638;5.784;2022-12-29T13:02:01;100295.81;;;14.18;58.38
48848;BME280;36611;51.638;5.784;2022-12-29T13:07:31;100302.34;;;14.25;58.42
48848;BME280;36611;51.638;5.784;2022-12-29T13:10:19;100304.59;;;14.29;57.88
48848;BME280;36611;51.638;5.784;2022-12-29T13:18:52;100315.13;;;14.32;57.53
48848;BME280;36611;51.638;5.784;2022-12-29T13:25:06;100314.13;;;14.34;57.31
48848;BME280;36611;51.638;5.784;2022-12-29T13:30:14;100314.13;;;14.34;57.50
48848;BME280;36611;51.638;5.784;2022-12-29T13:33:01;100325.78;;;14.34;57.45
48848;BME280;36611;51.638;5.784;2022-12-29T13:38:07;100318.25;;;14.28;57.67
48848;BME280;36611;51.638;5.784;2022-12-29T13:40:40;100328.63;;;14.23;57.35
48848;BME280;36611;51.638;5.784;2022-12-29T13:43:08;100335.75;;;14.14;57.34
48848;BME280;36611;51.638;5.784;2022-12-29T13:45:35;100340.84;;;14.08;57.68
48848;BME280;36611;51.638;5.784;2022-12-29T13:48:09;100338.03;;;13.99;57.84
48848;BME280;36611;51.638;5.784;2022-12-29T13:50:41;100357.50;;;13.93;58.29
48848;BME280;36611;51.638;5.784;2022-12-29T13:56:11;100360.34;;;13.82;58.68
48848;BME280;36611;51.638;5.784;2022-12-29T13:59:33;100364.31;;;13.78;58.81
48848;BME280;36611;51.638;5.784;2022-12-29T14:04:57;100361.03;;;13.75;58.78
48848;BME280;36611;51.638;5.784;2022-12-29T14:07:24;100361.31;;;13.72;58.96
48848;BME280;36611;51.638;5.784;2022-12-29T14:09:53;100359.75;;;13.69;58.94
48848;BME280;36611;51.638;5.784;2022-12-29T14:14:50;100370.25;;;13.62;59.37
48848;BME280;36611;51.638;5.784;2022-12-29T14:17:20;100355.91;;;13.62;59.74
48848;BME280;36611;51.638;5.784;2022-12-29T14:19:51;100366.00;;;13.60;59.56
48848;BME280;36611;51.638;5.784;2022-12-29T14:22:26;100367.13;;;13.57;59.53
48848;BME280;36611;51.638;5.784;2022-12-29T14:24:58;100373.66;;;13.55;59.58
48848;BME280;36611;51.638;5.784;2022-12-29T14:27:43;100371.09;;;13.53;59.89
48848;BME280;36611;51.638;5.784;2022-12-29T14:33:33;100372.53;;;13.57;59.89
48848;BME280;36611;51.638;5.784;2022-12-29T14:36:20;100367.28;;;13.56;59.93
48848;BME280;36611;51.638;5.784;2022-12-29T14:38:47;100369.97;;;13.56;59.48
48848;BME280;36611;51.638;5.784;2022-12-29T14:41:35;100367.53;;;13.53;59.88
48848;BME280;36611;51.638;5.784;2022-12-29T14:46:46;100377.47;;;13.52;59.48
48848;BME280;36611;51.638;5.784;2022-12-29T14:49:20;100378.63;;;13.50;59.66
48848;BME280;36611;51.638;5.784;2022-12-29T14:51:51;100379.88;;;13.46;59.82
48848;BME280;36611;51.638;5.784;2022-12-29T14:57:09;100382.00;;;13.42;59.83
48848;BME280;36611;51.638;5.784;2022-12-29T14:59:39;100387.53;;;13.41;59.70
48848;BME280;36611;51.638;5.784;2022-12-29T15:02:16;100389.53;;;13.39;59.72
48848;BME280;36611;51.638;5.784;2022-12-29T15:04:46;100396.75;;;13.38;60.00
48848;BME280;36611;51.638;5.784;2022-12-29T15:07:14;100389.53;;;13.39;59.98
48848;BME280;36611;51.638;5.784;2022-12-29T15:09:45;100403.00;;;13.39;60.17
48848;BME280;36611;51.638;5.784;2022-12-29T15:15:21;100402.25;;;13.36;60.09
48848;BME280;36611;51.638;5.784;2022-12-29T15:17:48;100403.13;;;13.37;60.09
48848;BME280;36611;51.638;5.784;2022-12-29T15:20:30;100408.50;;;13.37;60.08
48848;BME280;36611;51.638;5.784;2022-12-29T15:25:35;100400.19;;;13.40;60.52
48848;BME280;36611;51.638;5.784;2022-12-29T15:28:05;100409.13;;;13.41;60.32
48848;BME280;36611;51.638;5.784;2022-12-29T15:30:33;100408.00;;;13.43;60.57
48848;BME280;36611;51.638;5.784;2022-12-29T15:32:59;100412.41;;;13.44;60.08